Terminal Aerodrome Forecast
Issued by NWS

Home | Current Version | Previous Version | Graphics & Text | Print | Product List | Glossary On
Versions: 1 2 3 4 5 6 7 8 9 10 11 12 13
028
FTUS45 KRIW 230539
TAFBPI
TAF
KBPI 230539Z 2306/2406 35009KT P6SM VCSH SCT025 OVC040
     FM230900 11007KT 2SM -SN OVC020
     FM231600 34010G16KT 4SM -SN OVC030
     FM232200 09006KT P6SM VCSH BKN040=

USA.gov is the U.S. government's official web portal to all federal, state and local government web resources and services.